createdAt,value
2017-12-06T07:49:29.494Z,21.8
2017-12-06T12:03:36.782Z,21.1
2017-12-06T12:07:49.688Z,20.9
2017-12-06T12:19:42.159Z,20.95
2017-12-06T12:20:43.140Z,20.95
2017-12-06T12:22:26.668Z,21.06
2017-12-06T12:23:26.669Z,20.99
2017-12-06T12:25:18.625Z,21.06
2017-12-06T12:26:19.625Z,21.10
2017-12-06T12:29:02.391Z,21.14
2017-12-06T12:30:01.892Z,21.17
2017-12-06T12:30:54.987Z,21.21
2017-12-06T12:31:55.949Z,21.25
2017-12-06T12:33:48.374Z,21.25
2017-12-06T12:34:49.876Z,21.32
2017-12-06T12:36:40.824Z,21.35
2017-12-06T12:37:41.805Z,21.49
2017-12-06T12:39:35.237Z,21.61
2017-12-06T12:40:34.738Z,21.67
2017-12-06T12:42:27.670Z,21.75
2017-12-06T12:43:27.671Z,21.88
2017-12-06T12:45:21.101Z,21.98
2017-12-06T12:46:20.600Z,22.02
2017-12-06T12:48:13.531Z,22.03
2017-12-06T12:49:13.531Z,22.09
2017-12-06T12:51:05.960Z,22.24
2017-12-06T12:52:05.963Z,22.24
2017-12-06T12:54:00.893Z,22.24
2017-12-06T12:54:59.392Z,22.35
2017-12-06T12:56:51.352Z,22.36
2017-12-06T12:57:52.334Z,22.36
2017-12-06T12:59:44.763Z,22.37
2017-12-06T13:00:45.267Z,22.42
2017-12-06T13:02:38.195Z,22.47
2017-12-06T13:03:38.198Z,22.51
2017-12-06T13:05:31.131Z,22.45
2017-12-06T13:06:31.633Z,22.49
2017-12-06T13:08:24.064Z,22.57
2017-12-06T13:09:24.063Z,22.58
2017-12-06T13:11:16.494Z,22.57
2017-12-06T13:12:18.023Z,22.47
2017-12-06T13:14:09.924Z,22.58
2017-12-06T13:15:09.928Z,22.54
2017-12-06T13:17:02.858Z,22.55
2017-12-06T13:18:02.864Z,22.55
2017-12-06T13:19:55.295Z,22.57
2017-12-06T13:20:55.797Z,22.54
2017-12-06T13:22:51.230Z,22.54
2017-12-06T13:23:48.727Z,22.54
2017-12-06T13:25:41.162Z,22.49
2017-12-06T13:26:41.661Z,22.61
2017-12-06T13:28:35.593Z,22.57
2017-12-06T13:29:33.615Z,22.46
2017-12-06T13:31:27.532Z,22.47
2017-12-06T13:32:27.522Z,22.57
2017-12-06T13:34:19.457Z,22.61
2017-12-06T13:35:21.455Z,22.58
2017-12-06T13:37:13.387Z,22.62
2017-12-06T13:38:13.387Z,22.58
2017-12-06T13:40:06.819Z,22.61
2017-12-06T13:41:06.320Z,22.49
2017-12-06T13:42:59.251Z,22.51
2017-12-06T13:43:58.752Z,22.61
2017-12-06T13:45:51.683Z,22.46
2017-12-06T13:46:52.687Z,22.62
2017-12-06T13:48:45.618Z,22.55
2017-12-06T13:49:45.117Z,22.49
2017-12-06T13:51:37.550Z,22.47
2017-12-06T13:52:37.074Z,22.52
2017-12-06T13:54:30.482Z,22.46
2017-12-06T13:55:31.481Z,22.57
2017-12-06T13:57:23.414Z,22.54
2017-12-06T13:58:24.414Z,22.57
2017-12-06T14:00:16.348Z,22.54
2017-12-06T14:01:17.848Z,22.46
2017-12-06T14:03:08.802Z,22.54
2017-12-06T14:04:09.780Z,22.54
2017-12-06T14:06:01.712Z,22.47
2017-12-06T14:07:03.216Z,22.46
2017-12-06T14:08:55.143Z,22.51
2017-12-06T14:09:56.145Z,22.52
2017-12-06T14:11:47.594Z,22.46
2017-12-06T14:12:47.603Z,22.49
2017-12-06T14:14:41.008Z,22.46
2017-12-06T14:15:42.011Z,22.49
2017-12-06T14:17:33.463Z,22.45
2017-12-06T14:18:33.467Z,22.52
2017-12-06T14:20:26.874Z,22.49
2017-12-06T14:21:26.396Z,22.52
2017-12-06T14:23:19.323Z,22.49
2017-12-06T14:24:20.308Z,22.51
2017-12-06T14:26:13.240Z,22.45
2017-12-06T14:27:13.738Z,22.52
2017-12-06T14:29:06.172Z,22.54
2017-12-06T14:30:06.672Z,22.45
2017-12-06T14:31:59.106Z,22.49
2017-12-06T14:32:59.105Z,22.45
2017-12-06T14:34:51.539Z,22.45
2017-12-06T14:35:51.060Z,22.47
2017-12-06T14:37:45.469Z,22.47
2017-12-06T14:38:45.969Z,22.42
2017-12-06T14:40:37.459Z,22.47
2017-12-06T14:41:36.926Z,22.46
2017-12-06T14:43:30.835Z,22.45
2017-12-06T14:44:31.338Z,22.46
2017-12-06T14:46:23.775Z,22.51
2017-12-06T14:47:23.777Z,22.49
2017-12-06T14:49:16.712Z,22.47
2017-12-06T14:50:17.714Z,22.46
2017-12-06T14:52:10.142Z,22.52
2017-12-06T14:53:09.145Z,22.52
2017-12-06T14:55:02.577Z,22.55
2017-12-06T14:56:02.575Z,22.54
2017-12-06T14:57:56.009Z,22.62
2017-12-06T14:58:55.009Z,22.60
2017-12-06T15:00:48.442Z,22.57
2017-12-06T15:01:48.480Z,22.52
2017-12-06T15:03:41.373Z,22.60
2017-12-06T15:04:41.377Z,22.55
2017-12-06T15:06:33.808Z,22.61
2017-12-06T15:07:33.331Z,22.55
2017-12-06T15:09:27.241Z,22.57
2017-12-06T15:10:27.740Z,22.57
2017-12-06T15:12:19.193Z,22.58
2017-12-06T15:13:20.173Z,22.58
2017-12-06T15:15:12.607Z,22.64
2017-12-06T15:16:13.109Z,22.70
2017-12-06T15:18:06.040Z,22.72
2017-12-06T15:19:06.042Z,22.64
2017-12-06T15:20:58.474Z,22.65
2017-12-06T15:21:59.474Z,22.67
2017-12-06T15:23:51.909Z,22.57
2017-12-06T15:24:51.909Z,22.61
2017-12-06T15:26:43.847Z,22.57
2017-12-06T15:27:44.846Z,22.62
2017-12-06T15:29:37.777Z,22.61
2017-12-06T15:30:38.282Z,22.58
2017-12-06T15:32:29.725Z,22.58
2017-12-06T15:33:31.707Z,22.60
2017-12-06T15:35:22.644Z,22.57
2017-12-06T15:36:23.640Z,22.51
2017-12-06T15:38:17.075Z,22.57
2017-12-06T15:39:17.571Z,22.54
2017-12-06T15:41:08.508Z,22.55
2017-12-06T15:42:08.529Z,22.52
2017-12-06T15:44:02.440Z,22.57
2017-12-06T15:45:02.941Z,22.54
2017-12-06T15:46:54.874Z,22.62
2017-12-06T15:47:55.871Z,22.47
2017-12-06T15:49:47.321Z,22.57
2017-12-06T15:50:48.301Z,22.55
2017-12-06T15:52:40.732Z,22.57
2017-12-06T15:53:41.232Z,22.49
2017-12-06T15:55:33.162Z,22.49
2017-12-06T15:56:34.662Z,22.52
2017-12-06T15:58:27.098Z,22.46
2017-12-06T15:59:27.095Z,22.49
2017-12-06T16:01:19.117Z,22.49
2017-12-06T16:02:21.073Z,22.46
2017-12-06T16:04:12.062Z,22.52
2017-12-06T16:05:12.068Z,22.47
2017-12-06T16:07:05.035Z,22.54
2017-12-06T16:08:05.382Z,22.47
2017-12-06T16:09:58.950Z,22.51
2017-12-06T16:10:58.956Z,22.51
2017-12-06T16:12:52.148Z,22.47
2017-12-06T16:13:52.155Z,22.47
2017-12-06T16:15:45.149Z,22.52
2017-12-06T16:16:45.146Z,22.47
2017-12-06T16:18:38.015Z,22.46
2017-12-06T16:19:38.036Z,22.51
2017-12-06T16:21:30.929Z,22.51
2017-12-06T16:22:31.039Z,22.51
2017-12-06T16:24:24.475Z,22.49
2017-12-06T16:25:23.887Z,22.47
2017-12-06T16:27:17.003Z,22.54
2017-12-06T16:28:17.039Z,22.49
2017-12-06T16:30:09.965Z,22.45
2017-12-06T16:31:09.961Z,22.47
2017-12-06T16:33:02.903Z,22.49
2017-12-06T16:34:02.911Z,22.46
2017-12-06T16:35:55.819Z,22.47
2017-12-06T16:36:55.843Z,22.51
2017-12-06T16:38:48.813Z,22.47
2017-12-06T16:39:48.780Z,22.46
2017-12-06T16:41:41.684Z,22.46
2017-12-06T16:42:41.707Z,22.46
2017-12-06T16:44:34.733Z,22.45
2017-12-06T16:45:34.643Z,22.49
2017-12-06T16:47:27.551Z,22.49
2017-12-06T16:48:27.576Z,22.46
2017-12-06T16:50:20.501Z,22.47
2017-12-06T16:51:20.505Z,22.47
2017-12-06T16:53:13.434Z,22.55
2017-12-06T16:54:13.437Z,22.47
2017-12-06T16:56:06.348Z,22.55
2017-12-06T16:57:06.370Z,22.52
2017-12-06T16:58:59.310Z,22.61
2017-12-06T16:59:59.305Z,22.55
2017-12-06T17:01:52.212Z,22.52
2017-12-06T17:02:52.239Z,22.54
2017-12-06T17:04:45.165Z,22.54
2017-12-06T17:05:45.168Z,22.54
2017-12-06T17:07:38.079Z,22.60
2017-12-06T17:08:38.100Z,22.64
2017-12-06T17:10:31.029Z,22.58
2017-12-06T17:11:31.034Z,22.58
2017-12-06T17:13:23.974Z,22.57
2017-12-06T17:14:23.974Z,22.54
2017-12-06T17:16:16.880Z,22.62
2017-12-06T17:17:16.905Z,22.70
2017-12-06T17:19:09.828Z,22.64
2017-12-06T17:20:09.833Z,22.58
2017-12-06T17:22:02.741Z,22.68
2017-12-06T17:23:02.768Z,22.62
2017-12-06T17:24:55.700Z,22.68
2017-12-06T17:25:55.703Z,22.60
2017-12-06T17:27:48.609Z,22.64
2017-12-06T17:28:48.631Z,22.57
2017-12-06T17:30:41.559Z,22.64
2017-12-06T17:31:41.564Z,22.64
2017-12-06T17:33:34.491Z,22.64
2017-12-06T17:34:34.496Z,22.68
2017-12-06T17:36:27.408Z,22.65
2017-12-06T17:37:27.437Z,22.65
2017-12-06T17:39:20.363Z,22.70
2017-12-06T17:40:20.371Z,22.60
2017-12-06T17:42:13.279Z,22.65
2017-12-06T17:43:13.302Z,22.60
2017-12-06T17:45:06.229Z,22.60
2017-12-06T17:46:06.239Z,22.58
2017-12-06T17:47:59.142Z,22.65
2017-12-06T17:48:59.168Z,22.57
2017-12-06T17:50:52.094Z,22.54
2017-12-06T17:51:52.097Z,22.60
2017-12-06T17:53:45.035Z,22.60
2017-12-06T17:54:45.041Z,22.54
2017-12-06T17:56:37.958Z,22.58
2017-12-06T17:57:37.978Z,22.60
2017-12-06T17:59:30.905Z,22.54
2017-12-06T18:00:30.911Z,22.60
2017-12-06T18:02:23.823Z,22.57
2017-12-06T18:03:23.844Z,22.61
2017-12-06T18:05:16.771Z,22.54
2017-12-06T18:06:16.774Z,22.52
2017-12-06T18:08:09.684Z,22.60
2017-12-06T18:09:09.706Z,22.61
2017-12-06T18:11:02.640Z,22.55
2017-12-06T18:12:02.642Z,22.58
2017-12-06T18:13:55.583Z,22.54
2017-12-06T18:14:55.616Z,22.62
2017-12-06T18:16:48.495Z,22.58
2017-12-06T18:17:48.518Z,22.61
2017-12-06T18:19:41.449Z,22.60
2017-12-06T18:20:41.453Z,22.58
2017-12-06T18:22:34.370Z,22.49
2017-12-06T18:23:34.396Z,22.57
2017-12-06T18:25:27.349Z,22.52
2017-12-06T18:26:27.324Z,22.57
2017-12-06T18:28:20.484Z,22.52
2017-12-06T18:29:20.508Z,22.47
2017-12-06T18:31:13.442Z,22.47
2017-12-06T18:32:13.459Z,22.58
2017-12-06T18:34:06.391Z,22.57
2017-12-06T18:35:06.446Z,22.57
2017-12-06T18:36:59.287Z,22.52
2017-12-06T18:37:59.312Z,22.46
2017-12-06T18:39:52.240Z,22.57
2017-12-06T18:40:52.243Z,22.62
2017-12-06T18:42:45.153Z,22.60
2017-12-06T18:43:45.176Z,22.55
2017-12-06T18:45:38.102Z,22.57
2017-12-06T18:46:38.106Z,22.58
2017-12-06T18:48:31.023Z,22.60
2017-12-06T18:49:31.052Z,22.65
2017-12-06T18:51:23.997Z,22.67
2017-12-06T18:52:23.997Z,22.65
2017-12-06T18:54:16.927Z,22.72
2017-12-06T18:55:16.933Z,22.62
2017-12-06T18:57:09.839Z,22.64
2017-12-06T18:58:09.866Z,22.65
2017-12-06T19:00:02.800Z,22.67
2017-12-06T19:01:02.807Z,22.68
2017-12-06T19:02:55.720Z,22.65
2017-12-06T19:03:55.739Z,22.65
2017-12-06T19:05:48.680Z,22.75
2017-12-06T19:06:48.683Z,22.65
2017-12-06T19:08:41.589Z,22.70
2017-12-06T19:09:41.613Z,22.68
2017-12-06T19:11:34.540Z,22.65
2017-12-06T19:12:34.546Z,22.73
